createdAt,value
2023-02-17T00:01:12.096Z,8.70
2023-02-17T00:03:39.003Z,8.87
2023-02-17T00:06:10.542Z,8.80
2023-02-17T00:08:37.996Z,9.00
2023-02-17T00:11:04.993Z,9.47
2023-02-17T00:13:31.589Z,9.73
2023-02-17T00:15:58.352Z,8.83
2023-02-17T00:18:25.247Z,8.13
2023-02-17T00:20:51.952Z,9.03
2023-02-17T00:23:18.597Z,8.47
2023-02-17T00:25:45.506Z,8.77
2023-02-17T00:28:12.162Z,8.00
2023-02-17T00:30:39.283Z,7.67
2023-02-17T00:33:06.245Z,9.77
2023-02-17T00:35:33.182Z,7.67
2023-02-17T00:37:59.768Z,8.43
2023-02-17T00:40:26.336Z,8.70
2023-02-17T00:42:54.750Z,7.97
2023-02-17T00:45:21.377Z,7.20
2023-02-17T00:47:47.919Z,7.20
2023-02-17T00:50:14.479Z,7.83
2023-02-17T00:52:41.209Z,8.40
2023-02-17T00:55:08.039Z,7.73
2023-02-17T00:57:34.695Z,7.80
2023-02-17T01:00:01.429Z,7.63
2023-02-17T01:02:28.073Z,7.47
2023-02-17T01:04:54.736Z,8.03
2023-02-17T01:07:21.387Z,7.47
2023-02-17T01:09:47.978Z,7.23
2023-02-17T01:12:14.605Z,7.53
2023-02-17T01:14:41.302Z,6.63
2023-02-17T01:17:07.996Z,6.77
2023-02-17T01:19:34.585Z,7.70
2023-02-17T01:22:01.211Z,7.00
2023-02-17T01:24:27.838Z,6.90
2023-02-17T01:26:54.514Z,6.57
2023-02-17T01:29:21.196Z,6.43
2023-02-17T01:31:47.763Z,7.03
2023-02-17T01:34:14.378Z,6.97
2023-02-17T01:36:40.976Z,7.03
2023-02-17T01:39:07.693Z,6.33
2023-02-17T01:41:34.348Z,6.77
2023-02-17T01:44:15.674Z,5.60
2023-02-17T01:46:50.198Z,5.97
2023-02-17T01:49:34.791Z,6.83
2023-02-17T01:52:10.680Z,5.53
2023-02-17T01:54:45.505Z,6.27
2023-02-17T01:57:16.775Z,6.53
2023-02-17T01:59:45.103Z,5.70
2023-02-17T02:02:12.701Z,5.70
2023-02-17T02:04:43.055Z,6.17
2023-02-17T02:07:15.897Z,5.90
2023-02-17T02:09:50.574Z,6.10
2023-02-17T02:12:24.115Z,6.83
2023-02-17T02:14:51.605Z,6.33
2023-02-17T02:17:41.575Z,5.50
2023-02-17T02:20:37.931Z,6.03
2023-02-17T02:23:40.442Z,5.47
2023-02-17T02:26:28.234Z,5.10
2023-02-17T02:29:36.134Z,5.47
2023-02-17T02:32:05.558Z,5.50
2023-02-17T02:34:39.945Z,5.73
2023-02-17T02:37:15.019Z,5.63
2023-02-17T02:39:47.070Z,5.83
2023-02-17T02:42:18.224Z,6.20
2023-02-17T02:44:44.966Z,5.13
2023-02-17T02:47:49.418Z,5.67
2023-02-17T02:50:21.317Z,5.57
2023-02-17T02:52:52.379Z,5.57
2023-02-17T02:55:32.463Z,6.20
2023-02-17T02:58:22.501Z,6.93
2023-02-17T03:01:02.390Z,5.17
2023-02-17T03:03:41.233Z,5.63
2023-02-17T03:06:21.094Z,5.77
2023-02-17T03:08:55.531Z,6.10
2023-02-17T03:11:33.846Z,5.87
2023-02-17T03:14:12.503Z,6.37
2023-02-17T03:16:41.408Z,6.67
2023-02-17T03:19:10.019Z,6.13
2023-02-17T03:21:46.434Z,5.90
2023-02-17T03:24:13.006Z,6.17
2023-02-17T03:26:39.623Z,6.60
2023-02-17T03:29:06.246Z,5.87
2023-02-17T03:31:33.067Z,7.07
2023-02-17T03:34:00.814Z,6.67
2023-02-17T03:36:27.583Z,6.67
2023-02-17T03:38:54.195Z,7.30
2023-02-17T03:41:20.767Z,7.87
2023-02-17T03:43:47.329Z,6.43
2023-02-17T03:46:15.710Z,7.93
2023-02-17T03:48:42.688Z,8.60
2023-02-17T03:51:13.838Z,7.30
2023-02-17T03:53:41.139Z,7.73
2023-02-17T03:56:08.294Z,9.57
2023-02-17T03:58:35.188Z,7.70
2023-02-17T04:01:01.947Z,9.37
2023-02-17T04:03:28.569Z,8.93
2023-02-17T04:05:55.376Z,8.97
2023-02-17T04:08:22.221Z,10.37
2023-02-17T04:10:56.439Z,9.53
2023-02-17T04:13:23.560Z,8.53
2023-02-17T04:15:50.970Z,10.63
2023-02-17T04:18:18.057Z,8.53
2023-02-17T04:20:45.104Z,10.57
2023-02-17T04:23:14.324Z,9.93
2023-02-17T04:25:41.508Z,9.27
2023-02-17T04:28:08.335Z,8.63
2023-02-17T04:30:35.852Z,9.37
2023-02-17T04:33:02.821Z,10.17
2023-02-17T04:35:29.584Z,8.27
2023-02-17T04:37:56.164Z,9.20
2023-02-17T04:40:23.216Z,8.70
2023-02-17T04:42:49.935Z,8.30
2023-02-17T04:45:16.885Z,9.50
2023-02-17T04:47:43.544Z,9.43
2023-02-17T04:50:10.949Z,8.97
2023-02-17T04:52:37.550Z,8.63
2023-02-17T04:55:05.258Z,10.20
2023-02-17T04:57:31.962Z,9.53
2023-02-17T04:59:58.627Z,9.47
2023-02-17T05:02:28.300Z,9.03
2023-02-17T05:04:55.009Z,10.37
2023-02-17T05:07:22.063Z,10.93
2023-02-17T05:09:48.702Z,9.93
2023-02-17T05:12:15.479Z,9.90
2023-02-17T05:14:42.026Z,9.00
2023-02-17T05:17:08.632Z,10.57
2023-02-17T05:19:35.335Z,10.33
2023-02-17T05:22:01.926Z,11.20
2023-02-17T05:24:28.484Z,11.03
2023-02-17T05:26:55.056Z,9.30
2023-02-17T05:29:21.661Z,10.37
2023-02-17T05:31:48.413Z,8.60
2023-02-17T05:34:15.118Z,9.97
2023-02-17T05:36:41.678Z,9.47
2023-02-17T05:39:08.927Z,9.13
2023-02-17T05:41:35.470Z,10.17
2023-02-17T05:44:02.117Z,8.80
2023-02-17T05:46:28.758Z,9.03
2023-02-17T05:48:55.346Z,8.93
2023-02-17T05:51:21.942Z,10.10
2023-02-17T05:53:48.544Z,8.57
2023-02-17T05:56:15.230Z,7.73
2023-02-17T05:58:41.853Z,9.93
2023-02-17T06:01:12.278Z,8.10
2023-02-17T06:03:38.831Z,8.43
2023-02-17T06:06:07.294Z,8.30
2023-02-17T06:08:35.150Z,7.57
2023-02-17T06:11:01.747Z,8.17
2023-02-17T06:13:28.312Z,8.50
2023-02-17T06:15:54.936Z,7.33
2023-02-17T06:18:21.645Z,6.97
2023-02-17T06:20:48.238Z,7.70
2023-02-17T06:23:14.886Z,8.00
2023-02-17T06:25:41.774Z,7.07
2023-02-17T06:28:08.558Z,6.93
2023-02-17T06:30:35.132Z,5.93
2023-02-17T06:33:01.860Z,7.30
2023-02-17T06:35:28.435Z,6.10
2023-02-17T06:37:55.127Z,6.23
2023-02-17T06:40:22.022Z,6.97
2023-02-17T06:42:48.597Z,5.87
2023-02-17T06:45:15.407Z,5.83
2023-02-17T06:47:41.993Z,6.00
2023-02-17T06:50:09.642Z,5.47
2023-02-17T06:52:36.378Z,5.23
2023-02-17T06:55:03.429Z,6.07
2023-02-17T06:57:30.085Z,5.53
2023-02-17T06:59:56.620Z,5.40
2023-02-17T07:02:23.311Z,5.70
2023-02-17T07:04:49.917Z,5.37
2023-02-17T07:07:16.463Z,6.25
2023-02-17T07:09:43.390Z,5.77
2023-02-17T07:12:10.026Z,5.20
2023-02-17T07:14:36.606Z,5.03
2023-02-17T07:17:03.470Z,5.00
2023-02-17T07:19:30.366Z,4.60
2023-02-17T07:21:57.081Z,5.78
2023-02-17T07:24:23.833Z,4.60
2023-02-17T07:26:50.467Z,5.33
2023-02-17T07:29:17.022Z,4.17
2023-02-17T07:31:43.861Z,4.83
2023-02-17T07:34:10.472Z,4.63
2023-02-17T07:36:37.088Z,7.15
2023-02-17T07:39:04.196Z,5.53
2023-02-17T07:41:32.772Z,4.57
2023-02-17T07:43:59.860Z,5.43
2023-02-17T07:46:27.030Z,5.47
2023-02-17T07:48:55.013Z,5.57
2023-02-17T07:51:22.920Z,9.43
2023-02-17T07:53:51.006Z,9.43
2023-02-17T07:56:21.390Z,9.57
2023-02-17T07:58:48.739Z,9.55
2023-02-17T08:01:18.031Z,9.48
2023-02-17T08:03:45.415Z,7.03
2023-02-17T08:06:23.189Z,8.82
2023-02-17T08:09:09.906Z,8.80
2023-02-17T08:11:56.060Z,6.23
2023-02-17T08:14:24.847Z,6.23
2023-02-17T08:16:51.513Z,6.23
2023-02-17T08:19:18.140Z,6.93
2023-02-17T08:21:44.808Z,7.40
2023-02-17T08:24:12.269Z,6.53
2023-02-17T08:26:39.421Z,7.80
2023-02-17T08:29:06.116Z,7.30
2023-02-17T08:31:35.123Z,7.60
2023-02-17T08:34:04.488Z,7.37
2023-02-17T08:36:31.399Z,7.33
2023-02-17T08:38:58.517Z,7.57
2023-02-17T08:41:32.625Z,7.10
2023-02-17T08:44:01.650Z,8.60
2023-02-17T08:46:29.423Z,7.47
2023-02-17T08:48:56.533Z,8.33
2023-02-17T08:51:25.938Z,8.80
2023-02-17T08:53:54.701Z,7.57
2023-02-17T08:56:25.340Z,8.53
2023-02-17T08:58:52.733Z,8.50
2023-02-17T09:01:20.637Z,7.83
2023-02-17T09:03:49.882Z,7.33
2023-02-17T09:06:17.215Z,9.20
2023-02-17T09:08:44.931Z,7.60
2023-02-17T09:11:12.609Z,7.40
2023-02-17T09:13:39.165Z,7.90
2023-02-17T09:16:06.324Z,7.47
2023-02-17T09:18:33.263Z,7.27
2023-02-17T09:21:04.612Z,6.63
2023-02-17T09:23:31.216Z,8.07
2023-02-17T09:26:10.276Z,7.20
2023-02-17T09:28:38.021Z,8.33
2023-02-17T09:31:29.114Z,7.50
2023-02-17T09:33:56.337Z,7.13
2023-02-17T09:36:26.245Z,7.63
2023-02-17T09:38:54.152Z,7.80
2023-02-17T09:41:34.622Z,6.80
2023-02-17T09:44:02.172Z,7.63
2023-02-17T09:46:36.786Z,7.40
2023-02-17T09:49:10.693Z,6.80
2023-02-17T09:51:51.219Z,7.57
2023-02-17T09:54:23.858Z,7.87
2023-02-17T09:56:52.752Z,6.37
2023-02-17T09:59:34.855Z,6.87
2023-02-17T10:02:07.339Z,6.47
2023-02-17T10:04:41.195Z,6.87
2023-02-17T10:07:11.272Z,7.87
2023-02-17T10:09:51.811Z,9.77
2023-02-17T10:12:25.388Z,8.20
2023-02-17T10:14:55.809Z,7.70
2023-02-17T10:17:50.840Z,7.43
2023-02-17T10:20:25.669Z,6.50
2023-02-17T10:23:15.328Z,5.57
2023-02-17T10:26:10.003Z,6.13
2023-02-17T10:28:59.497Z,6.03
2023-02-17T10:31:41.195Z,6.30
2023-02-17T10:34:31.029Z,6.03
2023-02-17T10:37:02.156Z,5.53
2023-02-17T10:39:49.056Z,5.77
2023-02-17T10:42:30.584Z,6.72
2023-02-17T10:45:04.225Z,5.60
2023-02-17T10:47:31.493Z,4.80
2023-02-17T10:50:01.202Z,4.97
2023-02-17T10:52:39.168Z,5.50
2023-02-17T10:55:22.669Z,5.43
2023-02-17T10:57:54.505Z,4.70
2023-02-17T11:00:21.510Z,5.67
2023-02-17T11:02:51.521Z,5.57
2023-02-17T11:05:33.014Z,4.97
2023-02-17T11:08:07.250Z,4.80
2023-02-17T11:10:37.588Z,5.13
2023-02-17T11:13:29.853Z,5.20
2023-02-17T11:15:56.976Z,5.17
2023-02-17T11:18:28.992Z,5.30
2023-02-17T11:21:08.323Z,4.50
2023-02-17T11:23:36.185Z,4.40
2023-02-17T11:26:10.097Z,4.60
2023-02-17T11:28:37.332Z,4.70
2023-02-17T11:31:04.904Z,4.00
2023-02-17T11:33:39.744Z,5.88
2023-02-17T11:36:08.408Z,4.37
2023-02-17T11:38:45.449Z,3.70
2023-02-17T11:41:12.188Z,4.47
2023-02-17T11:43:39.963Z,4.00
2023-02-17T11:46:06.822Z,3.47
2023-02-17T11:48:54.423Z,3.87
2023-02-17T11:52:03.937Z,4.27
2023-02-17T11:55:03.291Z,2.97
2023-02-17T11:57:49.823Z,3.27
2023-02-17T12:00:26.486Z,3.77
2023-02-17T12:03:17.871Z,2.83
2023-02-17T12:06:00.919Z,3.77
2023-02-17T12:08:48.680Z,3.50
2023-02-17T12:11:27.344Z,3.67
2023-02-17T12:14:31.514Z,3.57
2023-02-17T12:17:34.642Z,3.50
2023-02-17T12:20:37.294Z,2.80
2023-02-17T12:23:18.762Z,2.90
2023-02-17T12:26:01.311Z,2.83
2023-02-17T12:28:33.838Z,2.87
2023-02-17T12:31:31.258Z,2.77
2023-02-17T12:34:13.104Z,2.87
2023-02-17T12:36:41.831Z,2.87
2023-02-17T12:39:15.079Z,3.10
2023-02-17T12:41:48.986Z,2.27
2023-02-17T12:44:35.823Z,2.23
2023-02-17T12:47:30.065Z,2.53
2023-02-17T12:50:19.135Z,2.53
2023-02-17T12:52:50.899Z,2.47
2023-02-17T12:55:20.647Z,2.50
2023-02-17T12:58:00.405Z,2.37
2023-02-17T13:01:09.054Z,2.37
2023-02-17T13:03:37.001Z,2.40
2023-02-17T13:06:36.813Z,2.53
2023-02-17T13:09:21.903Z,2.10
2023-02-17T13:11:48.552Z,2.67
2023-02-17T13:14:29.735Z,2.23
2023-02-17T13:16:56.423Z,2.17
2023-02-17T13:19:35.163Z,2.23
2023-02-17T13:22:02.336Z,2.80
2023-02-17T13:24:34.209Z,2.00
2023-02-17T13:27:32.935Z,2.30
2023-02-17T13:30:02.547Z,4.23
2023-02-17T13:32:31.567Z,1.97
2023-02-17T13:35:17.747Z,2.27
2023-02-17T13:37:46.250Z,2.33
2023-02-17T13:40:15.934Z,1.53
2023-02-17T13:42:51.364Z,1.70
2023-02-17T13:45:31.222Z,1.80
2023-02-17T13:47:59.891Z,1.73
2023-02-17T13:50:35.594Z,1.53
2023-02-17T13:53:19.892Z,2.33
2023-02-17T13:55:46.576Z,2.33
2023-02-17T13:58:13.136Z,1.73
2023-02-17T14:00:43.511Z,1.85
2023-02-17T14:03:28.788Z,1.30
2023-02-17T14:05:57.812Z,1.47
2023-02-17T14:08:29.709Z,1.27
2023-02-17T14:10:57.234Z,1.70
2023-02-17T14:13:24.444Z,1.80
2023-02-17T14:15:57.395Z,1.40
2023-02-17T14:18:39.496Z,1.23
2023-02-17T14:21:09.662Z,1.70
2023-02-17T14:23:48.991Z,1.07
2023-02-17T14:26:38.066Z,1.60
2023-02-17T14:29:08.387Z,1.10
2023-02-17T14:31:39.787Z,0.70
2023-02-17T14:34:11.703Z,0.90
2023-02-17T14:36:39.388Z,1.63
2023-02-17T14:39:08.427Z,0.90
2023-02-17T14:41:35.156Z,1.30
2023-02-17T14:44:01.764Z,0.90
2023-02-17T14:46:28.451Z,0.80
2023-02-17T14:48:55.078Z,0.93
2023-02-17T14:51:24.366Z,1.13
2023-02-17T14:53:52.018Z,0.90
2023-02-17T14:56:26.762Z,0.80
2023-02-17T14:58:54.072Z,0.80
2023-02-17T15:01:22.334Z,1.00
2023-02-17T15:03:49.005Z,0.83
2023-02-17T15:06:18.956Z,1.17
2023-02-17T15:08:49.063Z,1.13
2023-02-17T15:11:20.622Z,1.03
2023-02-17T15:13:47.360Z,0.87
2023-02-17T15:16:14.092Z,0.40
2023-02-17T15:18:40.959Z,0.63
2023-02-17T15:21:32.219Z,0.80
2023-02-17T15:24:00.490Z,1.00
2023-02-17T15:26:28.479Z,0.80
2023-02-17T15:28:56.978Z,1.23
2023-02-17T15:31:25.328Z,0.73
2023-02-17T15:33:59.918Z,0.70
2023-02-17T15:36:28.353Z,1.57
2023-02-17T15:38:55.057Z,0.67
2023-02-17T15:41:25.620Z,1.10
2023-02-17T15:43:53.368Z,0.80
2023-02-17T15:46:21.008Z,0.83
2023-02-17T15:48:52.127Z,1.10
2023-02-17T15:51:19.917Z,1.27
2023-02-17T15:53:47.522Z,0.97
2023-02-17T15:56:19.100Z,0.90
2023-02-17T15:58:48.713Z,1.20
2023-02-17T16:01:29.274Z,1.17
2023-02-17T16:03:57.359Z,0.73
2023-02-17T16:06:28.035Z,1.33
2023-02-17T16:08:55.265Z,1.00
2023-02-17T16:11:23.320Z,0.90
2023-02-17T16:13:51.006Z,1.00
2023-02-17T16:16:24.104Z,0.93
2023-02-17T16:18:51.683Z,0.97
2023-02-17T16:21:18.525Z,1.10
2023-02-17T16:23:45.195Z,1.67
2023-02-17T16:26:36.674Z,0.77
2023-02-17T16:29:17.636Z,1.00
2023-02-17T16:31:45.152Z,0.87
2023-02-17T16:34:23.074Z,1.65
2023-02-17T16:36:52.252Z,1.10
2023-02-17T16:39:21.072Z,0.67
2023-02-17T16:41:48.655Z,0.80
2023-02-17T16:44:17.603Z,0.70
2023-02-17T16:46:48.878Z,1.30
2023-02-17T16:49:32.551Z,1.30
2023-02-17T16:52:07.936Z,1.30
2023-02-17T16:54:35.841Z,1.13
2023-02-17T16:57:02.698Z,1.37
2023-02-17T16:59:29.752Z,0.97
2023-02-17T17:01:56.325Z,1.63
2023-02-17T17:04:22.891Z,0.70
2023-02-17T17:06:51.860Z,1.30
2023-02-17T17:09:21.340Z,0.93
2023-02-17T17:11:47.986Z,1.45
2023-02-17T17:14:15.058Z,0.90
2023-02-17T17:16:44.395Z,1.37
2023-02-17T17:19:13.167Z,2.10
2023-02-17T17:21:39.723Z,1.27
2023-02-17T17:24:06.282Z,0.63
2023-02-17T17:26:39.739Z,1.00
2023-02-17T17:29:08.060Z,1.40
2023-02-17T17:31:34.962Z,1.23
2023-02-17T17:34:01.648Z,3.53
2023-02-17T17:36:35.635Z,1.00
2023-02-17T17:39:05.354Z,1.07
2023-02-17T17:41:32.776Z,1.43
2023-02-17T17:43:59.900Z,3.92
2023-02-17T17:46:29.697Z,1.70
2023-02-17T17:49:01.091Z,3.47
2023-02-17T17:51:30.737Z,1.40
2023-02-17T17:53:57.794Z,1.63
2023-02-17T17:56:27.869Z,0.80
2023-02-17T17:58:55.124Z,1.63
2023-02-17T18:01:22.253Z,1.47
2023-02-17T18:03:49.842Z,1.33
2023-02-17T18:06:18.985Z,1.70
2023-02-17T18:08:48.018Z,0.80
2023-02-17T18:11:17.186Z,1.30
2023-02-17T18:13:47.367Z,1.33
2023-02-17T18:16:14.815Z,0.93
2023-02-17T18:18:41.610Z,1.30
2023-02-17T18:21:08.236Z,1.17
2023-02-17T18:23:34.856Z,1.13
2023-02-17T18:26:01.575Z,0.90
2023-02-17T18:28:28.232Z,1.13
2023-02-17T18:30:56.858Z,1.27
2023-02-17T18:33:23.636Z,1.40
2023-02-17T18:35:50.429Z,1.67
2023-02-17T18:38:17.126Z,1.17
2023-02-17T18:40:43.943Z,1.67
2023-02-17T18:43:10.576Z,1.17
2023-02-17T18:45:37.216Z,0.90
2023-02-17T18:48:03.901Z,1.20
2023-02-17T18:50:33.032Z,1.30
2023-02-17T18:53:00.264Z,0.87
2023-02-17T18:55:26.863Z,1.50
2023-02-17T18:57:54.056Z,1.00
2023-02-17T19:00:20.962Z,0.77
2023-02-17T19:02:47.906Z,1.33
2023-02-17T19:05:14.769Z,1.50
2023-02-17T19:07:41.332Z,0.80
2023-02-17T19:10:08.763Z,2.23
2023-02-17T19:12:35.896Z,2.07
2023-02-17T19:15:02.542Z,1.77
2023-02-17T19:17:29.111Z,1.37
2023-02-17T19:19:55.711Z,0.93
2023-02-17T19:22:22.319Z,1.17
2023-02-17T19:24:53.550Z,1.03
2023-02-17T19:27:20.884Z,1.40
2023-02-17T19:29:47.830Z,2.07
2023-02-17T19:32:14.442Z,1.03
2023-02-17T19:34:41.114Z,1.10
2023-02-17T19:37:07.675Z,1.80
2023-02-17T19:39:35.113Z,0.80
2023-02-17T19:42:03.036Z,0.80
2023-02-17T19:44:31.111Z,0.80
2023-02-17T19:46:58.391Z,0.80
2023-02-17T19:49:25.166Z,1.03
2023-02-17T19:51:53.739Z,0.80
2023-02-17T19:54:20.318Z,1.10
2023-02-17T19:56:48.837Z,0.70
2023-02-17T19:59:15.452Z,1.30
2023-02-17T20:01:43.345Z,1.40
2023-02-17T20:04:10.807Z,0.80
2023-02-17T20:06:45.953Z,0.60
2023-02-17T20:09:20.090Z,1.37
2023-02-17T20:11:48.599Z,0.70
2023-02-17T20:14:15.293Z,1.10
2023-02-17T20:16:41.971Z,1.30
2023-02-17T20:19:08.682Z,0.97
2023-02-17T20:21:38.381Z,0.60
2023-02-17T20:24:05.523Z,1.43
2023-02-17T20:26:37.614Z,1.10
2023-02-17T20:29:04.451Z,1.20
2023-02-17T20:31:31.358Z,0.70
2023-02-17T20:33:57.999Z,1.53
2023-02-17T20:36:25.057Z,1.17
2023-02-17T20:38:51.853Z,1.30
2023-02-17T20:41:20.393Z,1.20
2023-02-17T20:43:47.833Z,1.10
2023-02-17T20:46:19.803Z,0.80
2023-02-17T20:48:46.679Z,1.60
2023-02-17T20:51:13.264Z,1.27
2023-02-17T20:53:39.934Z,0.73
2023-02-17T20:56:37.759Z,1.37
2023-02-17T20:59:06.122Z,1.37
2023-02-17T21:01:32.701Z,1.10
2023-02-17T21:03:59.271Z,0.77
2023-02-17T21:06:28.288Z,1.10
2023-02-17T21:08:58.752Z,0.77
2023-02-17T21:11:25.630Z,1.03
2023-02-17T21:13:52.805Z,1.30
2023-02-17T21:16:26.505Z,0.77
2023-02-17T21:18:53.606Z,1.60
2023-02-17T21:21:20.632Z,0.90
2023-02-17T21:23:47.943Z,1.23
2023-02-17T21:26:15.973Z,1.10
2023-02-17T21:28:43.135Z,0.57
2023-02-17T21:31:10.747Z,1.10
2023-02-17T21:33:41.808Z,1.20
2023-02-17T21:36:10.278Z,0.83
2023-02-17T21:38:37.441Z,1.03
2023-02-17T21:41:10.556Z,1.13
2023-02-17T21:43:57.022Z,1.17
2023-02-17T21:46:24.316Z,1.80
2023-02-17T21:48:53.168Z,0.90
2023-02-17T21:51:20.229Z,0.80
2023-02-17T21:53:47.037Z,0.50
2023-02-17T21:56:14.203Z,0.73
2023-02-17T21:58:44.689Z,1.50
2023-02-17T22:01:11.308Z,0.33
2023-02-17T22:03:37.854Z,0.60
2023-02-17T22:06:17.576Z,0.90
2023-02-17T22:08:44.635Z,1.30
2023-02-17T22:11:31.682Z,1.20
2023-02-17T22:14:01.135Z,0.80
2023-02-17T22:16:31.087Z,1.30
2023-02-17T22:18:57.988Z,0.97
2023-02-17T22:21:24.772Z,0.73
2023-02-17T22:23:51.961Z,0.93
2023-02-17T22:26:21.148Z,1.43
2023-02-17T22:28:48.413Z,1.27
2023-02-17T22:31:17.596Z,0.73
2023-02-17T22:33:44.614Z,0.93
2023-02-17T22:36:13.663Z,1.40
2023-02-17T22:38:40.282Z,0.80
2023-02-17T22:41:09.080Z,1.27
2023-02-17T22:43:37.360Z,1.67
2023-02-17T22:46:04.722Z,0.83
2023-02-17T22:48:32.219Z,0.80
2023-02-17T22:51:03.744Z,0.70
2023-02-17T22:53:30.307Z,0.57
2023-02-17T22:55:57.955Z,1.10
2023-02-17T22:58:26.166Z,1.70
2023-02-17T23:01:08.745Z,0.63
2023-02-17T23:03:35.913Z,1.23
2023-02-17T23:06:05.670Z,0.77
2023-02-17T23:08:32.654Z,0.77
2023-02-17T23:10:59.516Z,1.40
2023-02-17T23:13:26.183Z,1.03
2023-02-17T23:15:52.827Z,0.53
2023-02-17T23:18:20.098Z,1.20
2023-02-17T23:20:48.612Z,0.87
2023-02-17T23:23:15.775Z,0.73
2023-02-17T23:25:47.943Z,1.53
2023-02-17T23:28:14.811Z,1.43
2023-02-17T23:30:42.329Z,0.77
2023-02-17T23:33:09.289Z,1.27
2023-02-17T23:35:44.998Z,1.03
2023-02-17T23:38:12.953Z,1.17
2023-02-17T23:40:40.705Z,0.30
2023-02-17T23:43:07.980Z,0.70
2023-02-17T23:45:37.614Z,0.77
2023-02-17T23:48:05.588Z,0.77
2023-02-17T23:50:33.104Z,0.40
2023-02-17T23:52:59.683Z,0.40
2023-02-17T23:55:26.281Z,1.00
2023-02-17T23:57:52.850Z,0.77
